sensor_id;sensor_type;location;lat;lon;timestamp;temperature;humidity
68177;DHT22;56478;50.982;7.032;2023-11-19T00:00:15;10.22;95.13
68177;DHT22;56478;50.982;7.032;2023-11-19T00:02:41;10.28;95.07
68177;DHT22;56478;50.982;7.032;2023-11-19T00:05:06;10.28;94.95
68177;DHT22;56478;50.982;7.032;2023-11-19T00:07:36;10.32;94.93
68177;DHT22;56478;50.982;7.032;2023-11-19T00:10:02;10.32;94.86
68177;DHT22;56478;50.982;7.032;2023-11-19T00:12:29;10.35;94.82
68177;DHT22;56478;50.982;7.032;2023-11-19T00:14:55;10.33;94.98
68177;DHT22;56478;50.982;7.032;2023-11-19T00:17:20;10.36;94.86
68177;DHT22;56478;50.982;7.032;2023-11-19T00:19:46;10.39;94.83
68177;DHT22;56478;50.982;7.032;2023-11-19T00:22:11;10.42;94.84
68177;DHT22;56478;50.982;7.032;2023-11-19T00:24:37;10.39;94.88
68177;DHT22;56478;50.982;7.032;2023-11-19T00:27:02;10.42;94.81
68177;DHT22;56478;50.982;7.032;2023-11-19T00:29:28;10.45;94.90
68177;DHT22;56478;50.982;7.032;2023-11-19T00:31:53;10.48;94.76
68177;DHT22;56478;50.982;7.032;2023-11-19T00:34:19;10.43;94.81
68177;DHT22;56478;50.982;7.032;2023-11-19T00:36:46;10.33;95.24
68177;DHT22;56478;50.982;7.032;2023-11-19T00:39:12;10.32;95.38
68177;DHT22;56478;50.982;7.032;2023-11-19T00:41:40;10.36;95.51
68177;DHT22;56478;50.982;7.032;2023-11-19T00:44:05;10.45;95.30
68177;DHT22;56478;50.982;7.032;2023-11-19T00:46:31;10.49;95.28
68177;DHT22;56478;50.982;7.032;2023-11-19T00:48:57;10.52;95.22
68177;DHT22;56478;50.982;7.032;2023-11-19T00:51:25;10.61;95.05
68177;DHT22;56478;50.982;7.032;2023-11-19T00:53:51;10.60;94.84
68177;DHT22;56478;50.982;7.032;2023-11-19T00:56:18;10.59;95.18
68177;DHT22;56478;50.982;7.032;2023-11-19T00:58:44;10.63;95.10
68177;DHT22;56478;50.982;7.032;2023-11-19T01:01:11;10.59;95.00
68177;DHT22;56478;50.982;7.032;2023-11-19T01:03:37;10.55;95.18
68177;DHT22;56478;50.982;7.032;2023-11-19T01:06:02;10.57;95.36
68177;DHT22;56478;50.982;7.032;2023-11-19T01:08:28;10.61;95.35
68177;DHT22;56478;50.982;7.032;2023-11-19T01:10:54;10.66;95.33
68177;DHT22;56478;50.982;7.032;2023-11-19T01:13:19;10.60;95.45
68177;DHT22;56478;50.982;7.032;2023-11-19T01:15:44;10.66;95.37
68177;DHT22;56478;50.982;7.032;2023-11-19T01:18:10;10.71;95.29
68177;DHT22;56478;50.982;7.032;2023-11-19T01:20:36;10.74;95.12
68177;DHT22;56478;50.982;7.032;2023-11-19T01:23:01;10.66;95.53
68177;DHT22;56478;50.982;7.032;2023-11-19T01:25:27;10.68;95.74
68177;DHT22;56478;50.982;7.032;2023-11-19T01:27:52;10.68;95.65
68177;DHT22;56478;50.982;7.032;2023-11-19T01:30:18;10.73;95.78
68177;DHT22;56478;50.982;7.032;2023-11-19T01:32:44;10.80;95.91
68177;DHT22;56478;50.982;7.032;2023-11-19T01:35:10;10.92;95.79
68177;DHT22;56478;50.982;7.032;2023-11-19T01:37:35;10.97;95.83
68177;DHT22;56478;50.982;7.032;2023-11-19T01:40:01;11.02;95.77
68177;DHT22;56478;50.982;7.032;2023-11-19T01:42:29;11.00;95.85
68177;DHT22;56478;50.982;7.032;2023-11-19T01:44:56;11.01;95.93
68177;DHT22;56478;50.982;7.032;2023-11-19T01:47:22;11.07;95.76
68177;DHT22;56478;50.982;7.032;2023-11-19T01:49:49;11.08;95.87
68177;DHT22;56478;50.982;7.032;2023-11-19T01:52:15;11.11;95.81
68177;DHT22;56478;50.982;7.032;2023-11-19T01:54:41;11.16;95.90
68177;DHT22;56478;50.982;7.032;2023-11-19T01:57:06;11.22;95.85
68177;DHT22;56478;50.982;7.032;2023-11-19T01:59:32;11.28;95.81
68177;DHT22;56478;50.982;7.032;2023-11-19T02:01:57;11.23;95.80
68177;DHT22;56478;50.982;7.032;2023-11-19T02:04:23;11.29;95.82
68177;DHT22;56478;50.982;7.032;2023-11-19T02:06:48;11.29;95.84
68177;DHT22;56478;50.982;7.032;2023-11-19T02:09:16;11.33;95.81
68177;DHT22;56478;50.982;7.032;2023-11-19T02:11:45;11.39;95.71
68177;DHT22;56478;50.982;7.032;2023-11-19T02:14:13;11.39;95.71
68177;DHT22;56478;50.982;7.032;2023-11-19T02:16:38;11.40;95.78
68177;DHT22;56478;50.982;7.032;2023-11-19T02:19:03;11.35;95.72
68177;DHT22;56478;50.982;7.032;2023-11-19T02:21:31;11.36;96.03
68177;DHT22;56478;50.982;7.032;2023-11-19T02:23:56;11.43;95.92
68177;DHT22;56478;50.982;7.032;2023-11-19T02:28:48;11.46;95.85
68177;DHT22;56478;50.982;7.032;2023-11-19T02:31:13;11.49;95.79
68177;DHT22;56478;50.982;7.032;2023-11-19T02:33:39;11.43;95.87
68177;DHT22;56478;50.982;7.032;2023-11-19T02:36:05;11.44;95.80
68177;DHT22;56478;50.982;7.032;2023-11-19T02:38:32;11.49;95.75
68177;DHT22;56478;50.982;7.032;2023-11-19T02:40:58;11.43;95.76
68177;DHT22;56478;50.982;7.032;2023-11-19T02:43:23;11.47;95.74
68177;DHT22;56478;50.982;7.032;2023-11-19T02:45:49;11.50;95.78
68177;DHT22;56478;50.982;7.032;2023-11-19T02:48:14;11.53;95.70
68177;DHT22;56478;50.982;7.032;2023-11-19T02:50:41;11.52;95.68
68177;DHT22;56478;50.982;7.032;2023-11-19T02:53:07;11.56;95.65
68177;DHT22;56478;50.982;7.032;2023-11-19T02:55:34;11.53;95.65
68177;DHT22;56478;50.982;7.032;2023-11-19T02:58:04;11.54;95.70
68177;DHT22;56478;50.982;7.032;2023-11-19T03:00:35;11.56;95.68
68177;DHT22;56478;50.982;7.032;2023-11-19T03:03:12;11.56;95.69
68177;DHT22;56478;50.982;7.032;2023-11-19T03:05:49;11.49;95.64
68177;DHT22;56478;50.982;7.032;2023-11-19T03:08:17;11.53;95.72
68177;DHT22;56478;50.982;7.032;2023-11-19T03:10:43;11.54;95.65
68177;DHT22;56478;50.982;7.032;2023-11-19T03:13:11;11.59;95.70
68177;DHT22;56478;50.982;7.032;2023-11-19T03:15:38;11.56;95.77
68177;DHT22;56478;50.982;7.032;2023-11-19T03:18:03;11.64;95.78
68177;DHT22;56478;50.982;7.032;2023-11-19T03:20:29;11.60;95.81
68177;DHT22;56478;50.982;7.032;2023-11-19T03:22:55;11.67;95.80
68177;DHT22;56478;50.982;7.032;2023-11-19T03:25:24;11.64;95.73
68177;DHT22;56478;50.982;7.032;2023-11-19T03:27:50;11.67;95.69
68177;DHT22;56478;50.982;7.032;2023-11-19T03:30:15;11.67;95.63
68177;DHT22;56478;50.982;7.032;2023-11-19T03:32:42;11.67;95.77
68177;DHT22;56478;50.982;7.032;2023-11-19T03:35:08;11.67;95.74
68177;DHT22;56478;50.982;7.032;2023-11-19T03:37:34;11.62;95.82
68177;DHT22;56478;50.982;7.032;2023-11-19T03:39:59;11.67;95.71
68177;DHT22;56478;50.982;7.032;2023-11-19T03:42:28;11.73;95.78
68177;DHT22;56478;50.982;7.032;2023-11-19T03:44:55;11.75;95.78
68177;DHT22;56478;50.982;7.032;2023-11-19T03:47:21;11.81;95.79
68177;DHT22;56478;50.982;7.032;2023-11-19T03:49:47;11.78;95.56
68177;DHT22;56478;50.982;7.032;2023-11-19T03:52:13;11.75;95.46
68177;DHT22;56478;50.982;7.032;2023-11-19T03:54:39;11.81;95.52
68177;DHT22;56478;50.982;7.032;2023-11-19T03:57:04;11.80;95.42
68177;DHT22;56478;50.982;7.032;2023-11-19T03:59:30;11.84;95.58
68177;DHT22;56478;50.982;7.032;2023-11-19T04:01:55;11.84;95.46
68177;DHT22;56478;50.982;7.032;2023-11-19T04:04:21;11.87;95.59
68177;DHT22;56478;50.982;7.032;2023-11-19T04:06:47;11.88;95.43
68177;DHT22;56478;50.982;7.032;2023-11-19T04:09:12;11.82;95.39
68177;DHT22;56478;50.982;7.032;2023-11-19T04:11:38;11.88;95.22
68177;DHT22;56478;50.982;7.032;2023-11-19T04:14:05;11.95;94.81
68177;DHT22;56478;50.982;7.032;2023-11-19T04:16:30;11.98;95.11
68177;DHT22;56478;50.982;7.032;2023-11-19T04:18:56;12.01;95.05
68177;DHT22;56478;50.982;7.032;2023-11-19T04:21:21;11.98;95.05
68177;DHT22;56478;50.982;7.032;2023-11-19T04:23:48;12.01;95.14
68177;DHT22;56478;50.982;7.032;2023-11-19T04:26:14;12.05;94.73
68177;DHT22;56478;50.982;7.032;2023-11-19T04:28:40;12.14;94.49
68177;DHT22;56478;50.982;7.032;2023-11-19T04:31:06;12.15;94.62
68177;DHT22;56478;50.982;7.032;2023-11-19T04:33:31;12.16;94.57
68177;DHT22;56478;50.982;7.032;2023-11-19T04:35:57;12.12;94.69
68177;DHT22;56478;50.982;7.032;2023-11-19T04:38:22;12.08;95.02
68177;DHT22;56478;50.982;7.032;2023-11-19T04:40:47;12.08;94.80
68177;DHT22;56478;50.982;7.032;2023-11-19T04:43:13;12.14;94.83
68177;DHT22;56478;50.982;7.032;2023-11-19T04:45:38;12.19;94.36
68177;DHT22;56478;50.982;7.032;2023-11-19T04:48:05;12.19;94.08
68177;DHT22;56478;50.982;7.032;2023-11-19T04:50:30;12.23;94.48
68177;DHT22;56478;50.982;7.032;2023-11-19T04:52:56;12.25;94.02
68177;DHT22;56478;50.982;7.032;2023-11-19T04:55:21;12.30;94.20
68177;DHT22;56478;50.982;7.032;2023-11-19T04:57:47;12.28;93.66
68177;DHT22;56478;50.982;7.032;2023-11-19T05:00:13;12.22;93.89
68177;DHT22;56478;50.982;7.032;2023-11-19T05:02:38;12.25;93.35
68177;DHT22;56478;50.982;7.032;2023-11-19T05:05:04;12.25;93.97
68177;DHT22;56478;50.982;7.032;2023-11-19T05:07:30;12.25;94.05
68177;DHT22;56478;50.982;7.032;2023-11-19T05:09:55;12.28;93.94
68177;DHT22;56478;50.982;7.032;2023-11-19T05:12:21;12.30;93.71
68177;DHT22;56478;50.982;7.032;2023-11-19T05:14:46;12.22;93.25
68177;DHT22;56478;50.982;7.032;2023-11-19T05:17:15;12.19;93.40
68177;DHT22;56478;50.982;7.032;2023-11-19T05:19:40;12.16;93.48
68177;DHT22;56478;50.982;7.032;2023-11-19T05:22:06;12.15;93.03
68177;DHT22;56478;50.982;7.032;2023-11-19T05:24:32;12.09;93.11
68177;DHT22;56478;50.982;7.032;2023-11-19T05:26:58;11.97;93.63
68177;DHT22;56478;50.982;7.032;2023-11-19T05:29:23;11.98;92.83
68177;DHT22;56478;50.982;7.032;2023-11-19T05:31:49;11.92;92.70
68177;DHT22;56478;50.982;7.032;2023-11-19T05:34:14;11.84;92.80
68177;DHT22;56478;50.982;7.032;2023-11-19T05:36:40;11.84;92.87
68177;DHT22;56478;50.982;7.032;2023-11-19T05:39:05;11.74;93.16
68177;DHT22;56478;50.982;7.032;2023-11-19T05:41:31;11.64;93.48
68177;DHT22;56478;50.982;7.032;2023-11-19T05:43:56;11.57;93.74
68177;DHT22;56478;50.982;7.032;2023-11-19T05:46:22;11.59;92.94
68177;DHT22;56478;50.982;7.032;2023-11-19T05:48:47;11.50;93.67
68177;DHT22;56478;50.982;7.032;2023-11-19T05:51:13;11.49;93.19
68177;DHT22;56478;50.982;7.032;2023-11-19T05:53:40;11.49;93.42
68177;DHT22;56478;50.982;7.032;2023-11-19T05:56:05;11.59;93.03
68177;DHT22;56478;50.982;7.032;2023-11-19T05:58:34;11.57;92.83
68177;DHT22;56478;50.982;7.032;2023-11-19T06:01:01;11.56;92.77
68177;DHT22;56478;50.982;7.032;2023-11-19T06:03:26;11.56;92.56
68177;DHT22;56478;50.982;7.032;2023-11-19T06:05:53;11.59;92.62
68177;DHT22;56478;50.982;7.032;2023-11-19T06:08:19;11.66;91.66
68177;DHT22;56478;50.982;7.032;2023-11-19T06:10:46;11.67;92.08
68177;DHT22;56478;50.982;7.032;2023-11-19T06:13:14;11.63;92.17
68177;DHT22;56478;50.982;7.032;2023-11-19T06:15:43;11.66;92.03
68177;DHT22;56478;50.982;7.032;2023-11-19T06:18:09;11.69;91.83
68177;DHT22;56478;50.982;7.032;2023-11-19T06:20:37;11.71;91.74
68177;DHT22;56478;50.982;7.032;2023-11-19T06:23:04;11.70;91.65
68177;DHT22;56478;50.982;7.032;2023-11-19T06:25:30;11.62;92.16
68177;DHT22;56478;50.982;7.032;2023-11-19T06:28:16;11.70;91.29
68177;DHT22;56478;50.982;7.032;2023-11-19T06:30:48;11.71;91.28
68177;DHT22;56478;50.982;7.032;2023-11-19T06:36:09;11.82;90.48
68177;DHT22;56478;50.982;7.032;2023-11-19T06:38:37;11.88;90.64
68177;DHT22;56478;50.982;7.032;2023-11-19T06:41:05;11.91;90.38
68177;DHT22;56478;50.982;7.032;2023-11-19T06:43:30;11.87;90.36
68177;DHT22;56478;50.982;7.032;2023-11-19T06:45:58;11.82;90.49
68177;DHT22;56478;50.982;7.032;2023-11-19T06:48:24;11.77;90.06
68177;DHT22;56478;50.982;7.032;2023-11-19T06:50:49;11.71;90.27
68177;DHT22;56478;50.982;7.032;2023-11-19T06:53:15;11.66;90.61
68177;DHT22;56478;50.982;7.032;2023-11-19T06:55:40;11.64;89.88
68177;DHT22;56478;50.982;7.032;2023-11-19T06:58:06;11.59;90.39
68177;DHT22;56478;50.982;7.032;2023-11-19T07:00:32;11.56;90.36
68177;DHT22;56478;50.982;7.032;2023-11-19T07:02:58;11.53;90.28
68177;DHT22;56478;50.982;7.032;2023-11-19T07:05:23;11.47;90.21
68177;DHT22;56478;50.982;7.032;2023-11-19T07:07:49;11.44;90.31
68177;DHT22;56478;50.982;7.032;2023-11-19T07:10:14;11.36;90.78
68177;DHT22;56478;50.982;7.032;2023-11-19T07:12:40;11.36;90.76
68177;DHT22;56478;50.982;7.032;2023-11-19T07:15:07;11.35;90.71
68177;DHT22;56478;50.982;7.032;2023-11-19T07:17:33;11.36;90.51
68177;DHT22;56478;50.982;7.032;2023-11-19T07:20:00;11.33;90.82
68177;DHT22;56478;50.982;7.032;2023-11-19T07:22:25;11.32;90.28
68177;DHT22;56478;50.982;7.032;2023-11-19T07:24:51;11.37;89.96
68177;DHT22;56478;50.982;7.032;2023-11-19T07:27:18;11.39;90.10
68177;DHT22;56478;50.982;7.032;2023-11-19T07:29:44;11.43;89.90
68177;DHT22;56478;50.982;7.032;2023-11-19T07:32:10;11.49;89.95
68177;DHT22;56478;50.982;7.032;2023-11-19T07:34:35;11.50;90.24
68177;DHT22;56478;50.982;7.032;2023-11-19T07:37:00;11.53;89.70
68177;DHT22;56478;50.982;7.032;2023-11-19T07:39:28;11.62;89.55
68177;DHT22;56478;50.982;7.032;2023-11-19T07:41:53;11.67;89.52
68177;DHT22;56478;50.982;7.032;2023-11-19T07:44:19;11.59;89.82
68177;DHT22;56478;50.982;7.032;2023-11-19T07:46:44;11.60;89.00
68177;DHT22;56478;50.982;7.032;2023-11-19T07:49:10;11.64;89.83
68177;DHT22;56478;50.982;7.032;2023-11-19T07:51:36;11.73;88.55
68177;DHT22;56478;50.982;7.032;2023-11-19T07:54:01;11.63;89.67
68177;DHT22;56478;50.982;7.032;2023-11-19T07:56:27;11.67;88.45
68177;DHT22;56478;50.982;7.032;2023-11-19T07:58:52;11.67;88.89
68177;DHT22;56478;50.982;7.032;2023-11-19T08:01:18;11.62;88.79
68177;DHT22;56478;50.982;7.032;2023-11-19T08:03:43;11.59;88.32
68177;DHT22;56478;50.982;7.032;2023-11-19T08:06:09;11.57;88.47
68177;DHT22;56478;50.982;7.032;2023-11-19T08:08:34;11.66;87.21
68177;DHT22;56478;50.982;7.032;2023-11-19T08:11:00;11.77;87.16
68177;DHT22;56478;50.982;7.032;2023-11-19T08:13:26;11.85;86.35
68177;DHT22;56478;50.982;7.032;2023-11-19T08:15:51;11.89;86.71
68177;DHT22;56478;50.982;7.032;2023-11-19T08:18:17;12.06;86.82
68177;DHT22;56478;50.982;7.032;2023-11-19T08:20:43;12.36;86.66
68177;DHT22;56478;50.982;7.032;2023-11-19T08:23:09;12.73;85.55
68177;DHT22;56478;50.982;7.032;2023-11-19T08:25:35;13.06;85.02
68177;DHT22;56478;50.982;7.032;2023-11-19T08:28:00;13.20;83.18
68177;DHT22;56478;50.982;7.032;2023-11-19T08:30:26;13.20;83.37
68177;DHT22;56478;50.982;7.032;2023-11-19T08:32:52;13.81;82.58
68177;DHT22;56478;50.982;7.032;2023-11-19T08:35:17;14.23;82.26
68177;DHT22;56478;50.982;7.032;2023-11-19T08:37:43;14.40;81.86
68177;DHT22;56478;50.982;7.032;2023-11-19T08:40:10;14.32;78.87
68177;DHT22;56478;50.982;7.032;2023-11-19T08:42:35;14.32;79.17
68177;DHT22;56478;50.982;7.032;2023-11-19T08:45:01;14.58;80.64
68177;DHT22;56478;50.982;7.032;2023-11-19T08:47:27;14.48;77.87
68177;DHT22;56478;50.982;7.032;2023-11-19T08:49:52;14.34;79.03
68177;DHT22;56478;50.982;7.032;2023-11-19T08:52:18;14.09;79.12
68177;DHT22;56478;50.982;7.032;2023-11-19T08:54:44;14.09;78.94
68177;DHT22;56478;50.982;7.032;2023-11-19T08:57:09;14.15;80.96
68177;DHT22;56478;50.982;7.032;2023-11-19T08:59:35;14.29;78.12
68177;DHT22;56478;50.982;7.032;2023-11-19T09:02:00;15.05;76.08
68177;DHT22;56478;50.982;7.032;2023-11-19T09:04:27;15.74;74.84
68177;DHT22;56478;50.982;7.032;2023-11-19T09:06:52;16.73;70.45
68177;DHT22;56478;50.982;7.032;2023-11-19T09:09:17;17.57;68.61
68177;DHT22;56478;50.982;7.032;2023-11-19T09:11:43;17.86;67.28
68177;DHT22;56478;50.982;7.032;2023-11-19T09:14:08;17.42;66.52
68177;DHT22;56478;50.982;7.032;2023-11-19T09:16:34;17.14;68.08
68177;DHT22;56478;50.982;7.032;2023-11-19T09:18:59;18.23;65.58
68177;DHT22;56478;50.982;7.032;2023-11-19T09:21:25;18.26;66.12
68177;DHT22;56478;50.982;7.032;2023-11-19T09:23:50;18.65;63.70
68177;DHT22;56478;50.982;7.032;2023-11-19T09:26:16;18.41;63.33
68177;DHT22;56478;50.982;7.032;2023-11-19T09:28:41;17.10;66.89
68177;DHT22;56478;50.982;7.032;2023-11-19T09:31:13;16.69;68.21
68177;DHT22;56478;50.982;7.032;2023-11-19T09:33:39;16.30;69.31
68177;DHT22;56478;50.982;7.032;2023-11-19T09:36:04;16.55;69.28
68177;DHT22;56478;50.982;7.032;2023-11-19T09:38:30;16.43;69.07
68177;DHT22;56478;50.982;7.032;2023-11-19T09:40:55;16.30;69.87
68177;DHT22;56478;50.982;7.032;2023-11-19T09:43:22;16.10;70.35
68177;DHT22;56478;50.982;7.032;2023-11-19T09:45:48;16.21;68.40
68177;DHT22;56478;50.982;7.032;2023-11-19T09:48:16;16.06;69.43
68177;DHT22;56478;50.982;7.032;2023-11-19T09:50:42;15.83;70.58
68177;DHT22;56478;50.982;7.032;2023-11-19T09:53:07;15.39;72.31
68177;DHT22;56478;50.982;7.032;2023-11-19T09:55:33;15.31;72.70
68177;DHT22;56478;50.982;7.032;2023-11-19T09:57:58;15.09;73.78
68177;DHT22;56478;50.982;7.032;2023-11-19T10:00:26;14.88;73.08
68177;DHT22;56478;50.982;7.032;2023-11-19T10:02:52;14.92;73.17
68177;DHT22;56478;50.982;7.032;2023-11-19T10:05:17;14.68;73.71
68177;DHT22;56478;50.982;7.032;2023-11-19T10:07:45;14.72;75.76
68177;DHT22;56478;50.982;7.032;2023-11-19T10:10:11;14.69;73.73
68177;DHT22;56478;50.982;7.032;2023-11-19T10:12:40;16.03;71.39
68177;DHT22;56478;50.982;7.032;2023-11-19T10:15:06;15.77;71.27
68177;DHT22;56478;50.982;7.032;2023-11-19T10:17:35;15.61;70.54
68177;DHT22;56478;50.982;7.032;2023-11-19T10:20:00;15.69;71.03
68177;DHT22;56478;50.982;7.032;2023-11-19T10:22:27;15.31;71.84
68177;DHT22;56478;50.982;7.032;2023-11-19T10:24:52;15.13;71.76
68177;DHT22;56478;50.982;7.032;2023-11-19T10:27:18;15.22;72.05
68177;DHT22;56478;50.982;7.032;2023-11-19T10:29:46;15.37;71.62
68177;DHT22;56478;50.982;7.032;2023-11-19T10:32:13;15.50;71.50
68177;DHT22;56478;50.982;7.032;2023-11-19T10:34:39;15.48;70.90
68177;DHT22;56478;50.982;7.032;2023-11-19T10:37:06;15.23;71.68
68177;DHT22;56478;50.982;7.032;2023-11-19T10:42:16;15.95;69.79
68177;DHT22;56478;50.982;7.032;2023-11-19T10:44:41;15.82;69.29
68177;DHT22;56478;50.982;7.032;2023-11-19T10:47:07;15.65;69.62
68177;DHT22;56478;50.982;7.032;2023-11-19T10:49:33;15.50;69.79
68177;DHT22;56478;50.982;7.032;2023-11-19T10:52:00;15.22;69.84
68177;DHT22;56478;50.982;7.032;2023-11-19T10:54:26;15.13;71.82
68177;DHT22;56478;50.982;7.032;2023-11-19T10:56:55;15.27;71.83
68177;DHT22;56478;50.982;7.032;2023-11-19T10:59:25;15.24;70.41
68177;DHT22;56478;50.982;7.032;2023-11-19T11:01:52;15.00;71.02
68177;DHT22;56478;50.982;7.032;2023-11-19T11:04:25;14.84;71.73
68177;DHT22;56478;50.982;7.032;2023-11-19T11:06:53;14.86;70.28
68177;DHT22;56478;50.982;7.032;2023-11-19T11:09:19;14.88;69.71
68177;DHT22;56478;50.982;7.032;2023-11-19T11:11:48;14.86;72.03
68177;DHT22;56478;50.982;7.032;2023-11-19T11:14:15;14.65;71.16
68177;DHT22;56478;50.982;7.032;2023-11-19T11:16:44;14.58;71.14
68177;DHT22;56478;50.982;7.032;2023-11-19T11:19:11;14.45;72.77
68177;DHT22;56478;50.982;7.032;2023-11-19T11:21:38;14.32;74.59
68177;DHT22;56478;50.982;7.032;2023-11-19T11:29:20;14.64;75.01
68177;DHT22;56478;50.982;7.032;2023-11-19T11:39:17;14.77;72.58
68177;DHT22;56478;50.982;7.032;2023-11-19T11:41:45;14.65;72.82
68177;DHT22;56478;50.982;7.032;2023-11-19T11:44:11;14.65;72.75
68177;DHT22;56478;50.982;7.032;2023-11-19T11:49:02;14.75;72.70
68177;DHT22;56478;50.982;7.032;2023-11-19T11:54:09;14.71;70.70
68177;DHT22;56478;50.982;7.032;2023-11-19T11:56:37;14.82;71.08
68177;DHT22;56478;50.982;7.032;2023-11-19T11:59:07;14.88;69.79
68177;DHT22;56478;50.982;7.032;2023-11-19T12:01:32;15.05;69.65
68177;DHT22;56478;50.982;7.032;2023-11-19T12:03:58;15.24;69.35
68177;DHT22;56478;50.982;7.032;2023-11-19T12:06:23;15.20;70.35
68177;DHT22;56478;50.982;7.032;2023-11-19T12:08:49;15.24;68.57
68177;DHT22;56478;50.982;7.032;2023-11-19T12:11:14;15.27;68.58
68177;DHT22;56478;50.982;7.032;2023-11-19T12:14:14;15.14;70.00
68177;DHT22;56478;50.982;7.032;2023-11-19T12:16:33;14.93;70.01
68177;DHT22;56478;50.982;7.032;2023-11-19T12:19:03;14.75;70.43
68177;DHT22;56478;50.982;7.032;2023-11-19T12:21:32;14.84;71.25
68177;DHT22;56478;50.982;7.032;2023-11-19T12:23:58;14.84;71.38
68177;DHT22;56478;50.982;7.032;2023-11-19T12:26:32;14.75;70.93
68177;DHT22;56478;50.982;7.032;2023-11-19T12:28:58;14.81;70.25
68177;DHT22;56478;50.982;7.032;2023-11-19T12:31:24;14.91;71.79
68177;DHT22;56478;50.982;7.032;2023-11-19T12:33:50;14.91;71.42
68177;DHT22;56478;50.982;7.032;2023-11-19T12:36:16;14.77;72.47
68177;DHT22;56478;50.982;7.032;2023-11-19T12:38:43;14.88;71.05
68177;DHT22;56478;50.982;7.032;2023-11-19T12:41:10;14.89;71.60
68177;DHT22;56478;50.982;7.032;2023-11-19T12:43:37;14.86;71.27
68177;DHT22;56478;50.982;7.032;2023-11-19T12:46:21;14.77;71.25
68177;DHT22;56478;50.982;7.032;2023-11-19T12:48:47;14.65;71.99
68177;DHT22;56478;50.982;7.032;2023-11-19T12:51:13;14.65;71.78
68177;DHT22;56478;50.982;7.032;2023-11-19T12:53:51;14.60;72.37
68177;DHT22;56478;50.982;7.032;2023-11-19T12:56:19;14.50;72.61
68177;DHT22;56478;50.982;7.032;2023-11-19T12:58:44;14.45;72.21
68177;DHT22;56478;50.982;7.032;2023-11-19T13:01:14;14.43;74.09
68177;DHT22;56478;50.982;7.032;2023-11-19T13:03:40;14.27;73.43
68177;DHT22;56478;50.982;7.032;2023-11-19T13:06:09;14.23;73.49
68177;DHT22;56478;50.982;7.032;2023-11-19T13:08:47;14.17;74.47
68177;DHT22;56478;50.982;7.032;2023-11-19T13:11:33;14.16;74.81
68177;DHT22;56478;50.982;7.032;2023-11-19T13:16:29;14.15;75.04
68177;DHT22;56478;50.982;7.032;2023-11-19T13:18:55;14.20;74.92
68177;DHT22;56478;50.982;7.032;2023-11-19T13:21:20;14.19;74.69
68177;DHT22;56478;50.982;7.032;2023-11-19T13:23:46;14.13;74.18
68177;DHT22;56478;50.982;7.032;2023-11-19T13:26:11;14.12;74.28
68177;DHT22;56478;50.982;7.032;2023-11-19T13:28:37;14.12;74.73
68177;DHT22;56478;50.982;7.032;2023-11-19T13:31:03;14.23;73.84
68177;DHT22;56478;50.982;7.032;2023-11-19T13:33:29;14.23;74.95
68177;DHT22;56478;50.982;7.032;2023-11-19T13:35:57;14.17;73.35
68177;DHT22;56478;50.982;7.032;2023-11-19T13:38:22;14.15;73.77
68177;DHT22;56478;50.982;7.032;2023-11-19T13:40:51;14.06;73.35
68177;DHT22;56478;50.982;7.032;2023-11-19T13:43:16;14.08;73.89
68177;DHT22;56478;50.982;7.032;2023-11-19T13:45:42;14.08;77.20
68177;DHT22;56478;50.982;7.032;2023-11-19T13:48:07;14.15;75.29
68177;DHT22;56478;50.982;7.032;2023-11-19T13:50:33;14.17;73.60
68177;DHT22;56478;50.982;7.032;2023-11-19T13:52:59;14.16;73.93
68177;DHT22;56478;50.982;7.032;2023-11-19T13:55:24;14.10;74.00
68177;DHT22;56478;50.982;7.032;2023-11-19T13:57:51;14.05;75.13
68177;DHT22;56478;50.982;7.032;2023-11-19T14:00:16;14.06;73.97
68177;DHT22;56478;50.982;7.032;2023-11-19T14:02:42;14.10;73.65
68177;DHT22;56478;50.982;7.032;2023-11-19T14:05:11;14.10;74.83
68177;DHT22;56478;50.982;7.032;2023-11-19T14:07:40;14.08;73.38
68177;DHT22;56478;50.982;7.032;2023-11-19T14:10:05;14.08;74.69
68177;DHT22;56478;50.982;7.032;2023-11-19T14:12:31;14.02;74.21
68177;DHT22;56478;50.982;7.032;2023-11-19T14:14:57;13.98;76.12
68177;DHT22;56478;50.982;7.032;2023-11-19T14:17:23;13.92;74.01
68177;DHT22;56478;50.982;7.032;2023-11-19T14:19:50;13.92;74.08
68177;DHT22;56478;50.982;7.032;2023-11-19T14:22:15;13.85;75.73
68177;DHT22;56478;50.982;7.032;2023-11-19T14:24:41;13.85;73.88
68177;DHT22;56478;50.982;7.032;2023-11-19T14:27:08;13.86;73.44
68177;DHT22;56478;50.982;7.032;2023-11-19T14:29:33;13.83;73.62
68177;DHT22;56478;50.982;7.032;2023-11-19T14:32:00;13.81;74.84
68177;DHT22;56478;50.982;7.032;2023-11-19T14:34:25;13.77;75.39
68177;DHT22;56478;50.982;7.032;2023-11-19T14:36:51;13.81;74.06
68177;DHT22;56478;50.982;7.032;2023-11-19T14:39:17;13.81;73.17
68177;DHT22;56478;50.982;7.032;2023-11-19T14:41:42;13.79;73.78
68177;DHT22;56478;50.982;7.032;2023-11-19T14:44:09;13.86;73.42
68177;DHT22;56478;50.982;7.032;2023-11-19T14:46:35;13.83;73.18
68177;DHT22;56478;50.982;7.032;2023-11-19T14:49:00;13.81;73.74
68177;DHT22;56478;50.982;7.032;2023-11-19T14:51:26;13.78;75.45
68177;DHT22;56478;50.982;7.032;2023-11-19T14:53:51;13.74;74.54
68177;DHT22;56478;50.982;7.032;2023-11-19T14:56:16;13.78;73.58
68177;DHT22;56478;50.982;7.032;2023-11-19T14:58:42;13.77;73.87
68177;DHT22;56478;50.982;7.032;2023-11-19T15:01:12;13.83;73.68
68177;DHT22;56478;50.982;7.032;2023-11-19T15:03:37;13.81;73.65
68177;DHT22;56478;50.982;7.032;2023-11-19T15:06:03;13.77;73.32
68177;DHT22;56478;50.982;7.032;2023-11-19T15:08:28;13.65;73.68
68177;DHT22;56478;50.982;7.032;2023-11-19T15:10:55;13.64;73.51
68177;DHT22;56478;50.982;7.032;2023-11-19T15:13:22;13.61;73.28
68177;DHT22;56478;50.982;7.032;2023-11-19T15:15:48;13.57;73.55
68177;DHT22;56478;50.982;7.032;2023-11-19T15:18:13;13.54;73.92
68177;DHT22;56478;50.982;7.032;2023-11-19T15:20:38;13.55;74.06
68177;DHT22;56478;50.982;7.032;2023-11-19T15:23:04;13.54;73.86
68177;DHT22;56478;50.982;7.032;2023-11-19T15:25:29;13.48;73.90
68177;DHT22;56478;50.982;7.032;2023-11-19T15:27:55;13.54;74.39
68177;DHT22;56478;50.982;7.032;2023-11-19T15:30:20;13.47;74.52
68177;DHT22;56478;50.982;7.032;2023-11-19T15:32:45;13.43;75.12
68177;DHT22;56478;50.982;7.032;2023-11-19T15:35:11;13.36;76.86
68177;DHT22;56478;50.982;7.032;2023-11-19T15:37:37;13.27;78.89
68177;DHT22;56478;50.982;7.032;2023-11-19T15:40:07;13.13;79.36
68177;DHT22;56478;50.982;7.032;2023-11-19T15:42:36;13.09;80.24
68177;DHT22;56478;50.982;7.032;2023-11-19T15:45:01;12.96;81.11
68177;DHT22;56478;50.982;7.032;2023-11-19T15:47:30;12.89;81.01
68177;DHT22;56478;50.982;7.032;2023-11-19T15:49:55;12.83;80.99
68177;DHT22;56478;50.982;7.032;2023-11-19T15:52:21;12.80;81.07